sensor_id;sensor_type;location;lat;lon;timestamp;pressure;altitude;pressure_sealevel;temperature;humidity
55994;BME280;67425;52.126;20.638;2024-03-23T00:55:22;57744.78;;;-144.78;100.00
55994;BME280;67425;52.126;20.638;2024-03-23T00:57:47;57753.09;;;-144.78;100.00
55994;BME280;67425;52.126;20.638;2024-03-23T01:00:13;57761.41;;;-144.78;100.00
55994;BME280;67425;52.126;20.638;2024-03-23T01:02:39;57751.03;;;-144.78;100.00
55994;BME280;67425;52.126;20.638;2024-03-23T01:05:04;57780.09;;;-144.78;100.00
55994;BME280;67425;52.126;20.638;2024-03-23T01:07:30;57755.19;;;-144.78;100.00
55994;BME280;67425;52.126;20.638;2024-03-23T01:09:55;57755.19;;;-144.78;100.00
55994;BME280;67425;52.126;20.638;2024-03-23T01:12:21;57746.88;;;-144.78;100.00
55994;BME280;67425;52.126;20.638;2024-03-23T01:14:46;57753.09;;;-144.78;100.00
55994;BME280;67425;52.126;20.638;2024-03-23T01:17:12;57740.63;;;-144.78;100.00
55994;BME280;67425;52.126;20.638;2024-03-23T01:19:37;57767.63;;;-144.78;100.00
55994;BME280;67425;52.126;20.638;2024-03-23T01:22:04;57746.88;;;-144.78;100.00
55994;BME280;67425;52.126;20.638;2024-03-23T01:24:30;57755.19;;;-144.78;100.00
55994;BME280;67425;52.126;20.638;2024-03-23T01:26:55;57738.56;;;-144.78;100.00
55994;BME280;67425;52.126;20.638;2024-03-23T01:29:21;57742.72;;;-144.78;100.00
55994;BME280;67425;52.126;20.638;2024-03-23T01:31:46;57753.09;;;-144.78;100.00
55994;BME280;67425;52.126;20.638;2024-03-23T01:34:11;57748.94;;;-144.78;100.00
55994;BME280;67425;52.126;20.638;2024-03-23T01:36:37;57746.88;;;-144.78;100.00
55994;BME280;67425;52.126;20.638;2024-03-23T01:39:03;57755.19;;;-144.78;100.00
55994;BME280;67425;52.126;20.638;2024-03-23T01:41:28;57773.88;;;-144.78;100.00
55994;BME280;67425;52.126;20.638;2024-03-23T01:43:55;57761.41;;;-144.78;100.00
55994;BME280;67425;52.126;20.638;2024-03-23T01:46:20;57763.47;;;-144.78;100.00
55994;BME280;67425;52.126;20.638;2024-03-23T01:48:46;57734.41;;;-144.78;100.00
55994;BME280;67425;52.126;20.638;2024-03-23T01:51:12;57746.88;;;-144.78;100.00
55994;BME280;67425;52.126;20.638;2024-03-23T01:53:38;57755.19;;;-144.78;100.00
55994;BME280;67425;52.126;20.638;2024-03-23T01:56:03;57800.88;;;-144.78;100.00
55994;BME280;67425;52.126;20.638;2024-03-23T01:58:29;57759.34;;;-144.78;100.00
55994;BME280;67425;52.126;20.638;2024-03-23T02:00:54;57742.72;;;-144.78;100.00
55994;BME280;67425;52.126;20.638;2024-03-23T02:03:26;57742.72;;;-144.78;100.00
55994;BME280;67425;52.126;20.638;2024-03-23T02:05:56;57784.25;;;-144.78;100.00
55994;BME280;67425;52.126;20.638;2024-03-23T02:08:23;57775.94;;;-144.78;100.00
55994;BME280;67425;52.126;20.638;2024-03-23T02:10:49;57765.56;;;-144.78;100.00
55994;BME280;67425;52.126;20.638;2024-03-23T02:13:16;57748.94;;;-144.78;100.00
55994;BME280;67425;52.126;20.638;2024-03-23T02:15:41;57759.34;;;-144.78;100.00
55994;BME280;67425;52.126;20.638;2024-03-23T02:18:08;57778.03;;;-144.78;100.00
55994;BME280;67425;52.126;20.638;2024-03-23T02:20:34;57751.03;;;-144.78;100.00
55994;BME280;67425;52.126;20.638;2024-03-23T02:23:00;57746.88;;;-144.78;100.00
55994;BME280;67425;52.126;20.638;2024-03-23T02:25:25;57763.47;;;-144.78;100.00
55994;BME280;67425;52.126;20.638;2024-03-23T02:27:50;57742.72;;;-144.78;100.00
55994;BME280;67425;52.126;20.638;2024-03-23T02:30:16;57751.03;;;-144.78;100.00
55994;BME280;67425;52.126;20.638;2024-03-23T02:32:41;57730.25;;;-144.78;100.00
55994;BME280;67425;52.126;20.638;2024-03-23T02:35:07;57742.72;;;-144.78;100.00
55994;BME280;67425;52.126;20.638;2024-03-23T02:37:32;57755.19;;;-144.78;100.00
55994;BME280;67425;52.126;20.638;2024-03-23T02:39:58;57751.03;;;-144.78;100.00
55994;BME280;67425;52.126;20.638;2024-03-23T02:42:23;57757.25;;;-144.78;100.00
55994;BME280;67425;52.126;20.638;2024-03-23T02:44:49;57761.41;;;-144.78;100.00
55994;BME280;67425;52.126;20.638;2024-03-23T02:47:14;57769.72;;;-144.78;100.00
55994;BME280;67425;52.126;20.638;2024-03-23T02:49:40;57751.03;;;-144.78;100.00
55994;BME280;67425;52.126;20.638;2024-03-23T02:52:05;57726.09;;;-144.78;100.00
55994;BME280;67425;52.126;20.638;2024-03-23T02:54:30;57775.94;;;-144.78;100.00
55994;BME280;67425;52.126;20.638;2024-03-23T02:56:56;57755.19;;;-144.78;100.00
55994;BME280;67425;52.126;20.638;2024-03-23T02:59:21;57759.34;;;-144.78;100.00
55994;BME280;67425;52.126;20.638;2024-03-23T03:01:47;57755.19;;;-144.78;100.00
55994;BME280;67425;52.126;20.638;2024-03-23T03:04:12;57773.88;;;-144.78;100.00
55994;BME280;67425;52.126;20.638;2024-03-23T03:06:37;57746.88;;;-144.78;100.00
55994;BME280;67425;52.126;20.638;2024-03-23T03:09:03;57759.34;;;-144.78;100.00
55994;BME280;67425;52.126;20.638;2024-03-23T03:11:29;57757.25;;;-144.78;100.00
55994;BME280;67425;52.126;20.638;2024-03-23T03:13:55;57765.56;;;-144.78;100.00
55994;BME280;67425;52.126;20.638;2024-03-23T03:16:20;57759.34;;;-144.78;100.00
55994;BME280;67425;52.126;20.638;2024-03-23T03:18:46;57744.78;;;-144.78;100.00
55994;BME280;67425;52.126;20.638;2024-03-23T03:21:12;57771.78;;;-144.78;100.00
55994;BME280;67425;52.126;20.638;2024-03-23T03:23:38;57755.19;;;-144.78;100.00
55994;BME280;67425;52.126;20.638;2024-03-23T03:26:06;57761.41;;;-144.78;100.00
55994;BME280;67425;52.126;20.638;2024-03-23T03:28:32;57755.19;;;-144.78;100.00
55994;BME280;67425;52.126;20.638;2024-03-23T03:31:01;57757.25;;;-144.78;100.00
55994;BME280;67425;52.126;20.638;2024-03-23T03:33:28;57782.19;;;-144.78;100.00
55994;BME280;67425;52.126;20.638;2024-03-23T03:35:54;57736.50;;;-144.78;100.00
55994;BME280;67425;52.126;20.638;2024-03-23T03:38:19;57757.25;;;-144.78;100.00
55994;BME280;67425;52.126;20.638;2024-03-23T03:40:45;57761.41;;;-144.78;100.00
55994;BME280;67425;52.126;20.638;2024-03-23T03:43:10;57742.72;;;-144.78;100.00
55994;BME280;67425;52.126;20.638;2024-03-23T03:45:36;57759.34;;;-144.78;100.00
55994;BME280;67425;52.126;20.638;2024-03-23T03:48:01;57761.41;;;-144.78;100.00
55994;BME280;67425;52.126;20.638;2024-03-23T03:50:27;57761.41;;;-144.78;100.00
55994;BME280;67425;52.126;20.638;2024-03-23T03:52:52;57746.88;;;-144.78;100.00
55994;BME280;67425;52.126;20.638;2024-03-23T03:55:17;57759.34;;;-144.78;100.00
55994;BME280;67425;52.126;20.638;2024-03-23T03:57:43;57724.03;;;-144.78;100.00
55994;BME280;67425;52.126;20.638;2024-03-23T04:00:09;57736.50;;;-144.78;100.00
55994;BME280;67425;52.126;20.638;2024-03-23T04:02:38;57748.94;;;-144.78;100.00
55994;BME280;67425;52.126;20.638;2024-03-23T04:05:03;57757.25;;;-144.78;100.00
55994;BME280;67425;52.126;20.638;2024-03-23T04:07:29;57763.47;;;-144.78;100.00
55994;BME280;67425;52.126;20.638;2024-03-23T04:09:54;57730.25;;;-144.78;100.00
55994;BME280;67425;52.126;20.638;2024-03-23T04:12:20;57759.34;;;-144.78;100.00
55994;BME280;67425;52.126;20.638;2024-03-23T04:14:45;57748.94;;;-144.78;100.00
55994;BME280;67425;52.126;20.638;2024-03-23T04:17:11;57757.25;;;-144.78;100.00
55994;BME280;67425;52.126;20.638;2024-03-23T04:19:36;57773.88;;;-144.78;100.00
55994;BME280;67425;52.126;20.638;2024-03-23T04:22:02;57780.09;;;-144.78;100.00
55994;BME280;67425;52.126;20.638;2024-03-23T04:24:28;57736.50;;;-144.78;100.00
55994;BME280;67425;52.126;20.638;2024-03-23T04:26:53;57744.78;;;-144.78;100.00
55994;BME280;67425;52.126;20.638;2024-03-23T04:29:19;57748.94;;;-144.78;100.00
55994;BME280;67425;52.126;20.638;2024-03-23T04:31:44;57763.47;;;-144.78;100.00
55994;BME280;67425;52.126;20.638;2024-03-23T04:34:10;57736.50;;;-144.78;100.00
55994;BME280;67425;52.126;20.638;2024-03-23T04:36:35;57751.03;;;-144.78;100.00
55994;BME280;67425;52.126;20.638;2024-03-23T04:39:01;57751.03;;;-144.78;100.00
55994;BME280;67425;52.126;20.638;2024-03-23T04:41:26;57751.03;;;-144.78;100.00
55994;BME280;67425;52.126;20.638;2024-03-23T04:43:52;57751.03;;;-144.78;100.00
55994;BME280;67425;52.126;20.638;2024-03-23T04:46:17;57736.50;;;-144.78;100.00
55994;BME280;67425;52.126;20.638;2024-03-23T04:48:43;57761.41;;;-144.78;100.00
55994;BME280;67425;52.126;20.638;2024-03-23T04:51:10;57759.34;;;-144.78;100.00
55994;BME280;67425;52.126;20.638;2024-03-23T04:53:37;57726.09;;;-144.78;100.00
55994;BME280;67425;52.126;20.638;2024-03-23T04:56:03;57786.34;;;-144.78;100.00
55994;BME280;67425;52.126;20.638;2024-03-23T04:58:29;57767.63;;;-144.78;100.00
55994;BME280;67425;52.126;20.638;2024-03-23T05:00:56;57757.25;;;-144.78;100.00
55994;BME280;67425;52.126;20.638;2024-03-23T05:03:21;57746.88;;;-144.78;100.00
55994;BME280;67425;52.126;20.638;2024-03-23T05:05:50;57759.34;;;-144.78;100.00
55994;BME280;67425;52.126;20.638;2024-03-23T05:08:16;57763.47;;;-144.78;100.00
55994;BME280;67425;52.126;20.638;2024-03-23T05:10:42;57765.56;;;-144.78;100.00
55994;BME280;67425;52.126;20.638;2024-03-23T05:13:07;57765.56;;;-144.78;100.00
55994;BME280;67425;52.126;20.638;2024-03-23T05:15:33;57763.47;;;-144.78;100.00
55994;BME280;67425;52.126;20.638;2024-03-23T05:17:58;57759.34;;;-144.78;100.00
55994;BME280;67425;52.126;20.638;2024-03-23T05:20:23;57755.19;;;-144.78;100.00
55994;BME280;67425;52.126;20.638;2024-03-23T05:22:49;57751.03;;;-144.78;100.00
55994;BME280;67425;52.126;20.638;2024-03-23T05:25:15;57798.78;;;-144.78;100.00
55994;BME280;67425;52.126;20.638;2024-03-23T05:27:41;57746.88;;;-144.78;100.00
55994;BME280;67425;52.126;20.638;2024-03-23T05:30:07;57738.56;;;-144.78;100.00
55994;BME280;67425;52.126;20.638;2024-03-23T05:32:32;57765.56;;;-144.78;100.00
55994;BME280;67425;52.126;20.638;2024-03-23T05:34:58;57751.03;;;-144.78;100.00
55994;BME280;67425;52.126;20.638;2024-03-23T05:37:23;57753.09;;;-144.78;100.00
55994;BME280;67425;52.126;20.638;2024-03-23T05:39:49;57767.63;;;-144.78;100.00
55994;BME280;67425;52.126;20.638;2024-03-23T05:42:18;57769.72;;;-144.78;100.00
55994;BME280;67425;52.126;20.638;2024-03-23T05:44:46;57765.56;;;-144.78;100.00
55994;BME280;67425;52.126;20.638;2024-03-23T05:47:13;57740.63;;;-144.78;100.00
55994;BME280;67425;52.126;20.638;2024-03-23T05:49:40;57761.41;;;-144.78;100.00
55994;BME280;67425;52.126;20.638;2024-03-23T05:52:10;57761.41;;;-144.78;100.00
55994;BME280;67425;52.126;20.638;2024-03-23T05:54:36;57790.47;;;-144.78;100.00
55994;BME280;67425;52.126;20.638;2024-03-23T05:57:01;57730.25;;;-144.78;100.00
55994;BME280;67425;52.126;20.638;2024-03-23T05:59:27;57746.88;;;-144.78;100.00
55994;BME280;67425;52.126;20.638;2024-03-23T06:01:53;57742.72;;;-144.78;100.00
55994;BME280;67425;52.126;20.638;2024-03-23T06:04:18;57755.19;;;-144.78;100.00
55994;BME280;67425;52.126;20.638;2024-03-23T06:06:44;57721.94;;;-144.78;100.00
55994;BME280;67425;52.126;20.638;2024-03-23T06:09:09;57728.19;;;-144.78;100.00
55994;BME280;67425;52.126;20.638;2024-03-23T06:11:34;57763.47;;;-144.78;100.00
55994;BME280;67425;52.126;20.638;2024-03-23T06:14:00;57738.56;;;-144.78;100.00
55994;BME280;67425;52.126;20.638;2024-03-23T06:16:25;57740.63;;;-144.78;100.00
55994;BME280;67425;52.126;20.638;2024-03-23T06:18:52;57740.63;;;-144.78;100.00
55994;BME280;67425;52.126;20.638;2024-03-23T06:21:18;57759.34;;;-144.78;100.00
55994;BME280;67425;52.126;20.638;2024-03-23T06:23:44;57757.25;;;-144.78;100.00
55994;BME280;67425;52.126;20.638;2024-03-23T06:26:17;57728.19;;;-144.78;100.00
55994;BME280;67425;52.126;20.638;2024-03-23T06:28:42;57775.94;;;-144.78;100.00
55994;BME280;67425;52.126;20.638;2024-03-23T06:31:11;57751.03;;;-144.78;100.00
55994;BME280;67425;52.126;20.638;2024-03-23T06:33:37;57763.47;;;-144.78;100.00
55994;BME280;67425;52.126;20.638;2024-03-23T06:36:04;57761.41;;;-144.78;100.00
55994;BME280;67425;52.126;20.638;2024-03-23T06:38:30;57746.88;;;-144.78;100.00
55994;BME280;67425;52.126;20.638;2024-03-23T06:40:55;57778.03;;;-144.78;100.00
55994;BME280;67425;52.126;20.638;2024-03-23T06:43:20;57751.03;;;-144.78;100.00
55994;BME280;67425;52.126;20.638;2024-03-23T06:45:53;57755.19;;;-144.78;100.00
55994;BME280;67425;52.126;20.638;2024-03-23T06:48:19;57771.78;;;-144.78;100.00
55994;BME280;67425;52.126;20.638;2024-03-23T06:50:45;57742.72;;;-144.78;100.00
55994;BME280;67425;52.126;20.638;2024-03-23T06:53:11;57748.94;;;-144.78;100.00
55994;BME280;67425;52.126;20.638;2024-03-23T06:55:37;57732.34;;;-144.78;100.00
55994;BME280;67425;52.126;20.638;2024-03-23T06:58:02;57778.03;;;-144.78;100.00
55994;BME280;67425;52.126;20.638;2024-03-23T07:00:28;57730.25;;;-144.78;100.00
55994;BME280;67425;52.126;20.638;2024-03-23T07:02:53;57721.94;;;-144.78;100.00
55994;BME280;67425;52.126;20.638;2024-03-23T07:05:19;57738.56;;;-144.78;100.00
55994;BME280;67425;52.126;20.638;2024-03-23T07:07:44;57744.78;;;-144.78;100.00
55994;BME280;67425;52.126;20.638;2024-03-23T07:10:10;57751.03;;;-144.78;100.00
55994;BME280;67425;52.126;20.638;2024-03-23T07:12:35;57724.03;;;-144.78;100.00
55994;BME280;67425;52.126;20.638;2024-03-23T07:15:00;57767.63;;;-144.78;100.00
55994;BME280;67425;52.126;20.638;2024-03-23T07:17:26;57730.25;;;-144.78;100.00
55994;BME280;67425;52.126;20.638;2024-03-23T07:19:51;57742.72;;;-144.78;100.00
55994;BME280;67425;52.126;20.638;2024-03-23T07:22:17;57746.88;;;-144.78;100.00
55994;BME280;67425;52.126;20.638;2024-03-23T07:24:43;57734.41;;;-144.78;100.00
55994;BME280;67425;52.126;20.638;2024-03-23T07:27:09;57728.19;;;-144.78;100.00
55994;BME280;67425;52.126;20.638;2024-03-23T07:29:36;57753.09;;;-144.78;100.00
55994;BME280;67425;52.126;20.638;2024-03-23T07:32:01;57717.78;;;-144.78;100.00
55994;BME280;67425;52.126;20.638;2024-03-23T07:34:28;57740.63;;;-144.78;100.00
55994;BME280;67425;52.126;20.638;2024-03-23T07:36:53;57753.09;;;-144.78;100.00
55994;BME280;67425;52.126;20.638;2024-03-23T07:39:18;57730.25;;;-144.78;100.00
55994;BME280;67425;52.126;20.638;2024-03-23T07:41:45;57742.72;;;-144.78;100.00
55994;BME280;67425;52.126;20.638;2024-03-23T07:44:10;57717.78;;;-144.78;100.00
55994;BME280;67425;52.126;20.638;2024-03-23T07:46:36;57709.50;;;-144.78;100.00
55994;BME280;67425;52.126;20.638;2024-03-23T07:49:01;57742.72;;;-144.78;100.00
55994;BME280;67425;52.126;20.638;2024-03-23T07:51:29;57721.94;;;-144.78;100.00
55994;BME280;67425;52.126;20.638;2024-03-23T07:53:54;57728.19;;;-144.78;100.00
55994;BME280;67425;52.126;20.638;2024-03-23T07:56:19;57732.34;;;-144.78;100.00
55994;BME280;67425;52.126;20.638;2024-03-23T07:58:46;57709.50;;;-144.78;100.00
55994;BME280;67425;52.126;20.638;2024-03-23T08:01:14;57726.09;;;-144.78;100.00
55994;BME280;67425;52.126;20.638;2024-03-23T08:03:43;57711.56;;;-144.78;100.00
55994;BME280;67425;52.126;20.638;2024-03-23T08:06:13;57738.56;;;-144.78;100.00
55994;BME280;67425;52.126;20.638;2024-03-23T08:08:40;57711.56;;;-144.78;100.00
55994;BME280;67425;52.126;20.638;2024-03-23T08:11:06;57701.19;;;-144.78;100.00
55994;BME280;67425;52.126;20.638;2024-03-23T08:13:32;57730.25;;;-144.78;100.00
55994;BME280;67425;52.126;20.638;2024-03-23T08:16:02;57721.94;;;-144.78;100.00
55994;BME280;67425;52.126;20.638;2024-03-23T08:18:28;57732.34;;;-144.78;100.00
55994;BME280;67425;52.126;20.638;2024-03-23T08:21:00;57746.88;;;-144.78;100.00
55994;BME280;67425;52.126;20.638;2024-03-23T08:23:28;57719.88;;;-144.78;100.00
55994;BME280;67425;52.126;20.638;2024-03-23T08:26:00;57707.41;;;-144.78;100.00
55994;BME280;67425;52.126;20.638;2024-03-23T08:28:26;57713.63;;;-144.78;100.00
55994;BME280;67425;52.126;20.638;2024-03-23T08:30:53;57692.88;;;-144.78;99.35
55994;BME280;67425;52.126;20.638;2024-03-23T08:33:18;57701.19;;;-144.78;97.59
55994;BME280;67425;52.126;20.638;2024-03-23T08:35:56;57690.78;;;-144.78;98.04
55994;BME280;67425;52.126;20.638;2024-03-23T08:38:23;57694.94;;;-144.78;97.80
55994;BME280;67425;52.126;20.638;2024-03-23T08:40:56;57703.25;;;-144.78;97.28
55994;BME280;67425;52.126;20.638;2024-03-23T08:43:22;57680.41;;;-144.78;96.79
55994;BME280;67425;52.126;20.638;2024-03-23T08:45:47;57674.19;;;-144.78;95.64
55994;BME280;67425;52.126;20.638;2024-03-23T08:48:13;57697.03;;;-144.78;96.03
55994;BME280;67425;52.126;20.638;2024-03-23T08:50:38;57686.63;;;-144.78;94.84
55994;BME280;67425;52.126;20.638;2024-03-23T08:53:04;57684.56;;;-144.78;95.57
55994;BME280;67425;52.126;20.638;2024-03-23T08:55:29;57709.50;;;-144.78;95.55
55994;BME280;67425;52.126;20.638;2024-03-23T08:57:55;57682.50;;;-144.78;93.99
55994;BME280;67425;52.126;20.638;2024-03-23T09:00:21;57707.41;;;-144.78;95.64
55994;BME280;67425;52.126;20.638;2024-03-23T09:02:50;57697.03;;;-144.78;94.52
55994;BME280;67425;52.126;20.638;2024-03-23T09:05:15;57690.78;;;-144.78;94.77
55994;BME280;67425;52.126;20.638;2024-03-23T09:07:40;57694.94;;;-144.78;93.02
55994;BME280;67425;52.126;20.638;2024-03-23T09:10:07;57697.03;;;-144.78;92.66
55994;BME280;67425;52.126;20.638;2024-03-23T09:12:32;57690.78;;;-144.78;93.10
55994;BME280;67425;52.126;20.638;2024-03-23T09:14:58;57678.34;;;-144.78;92.77
55994;BME280;67425;52.126;20.638;2024-03-23T09:17:23;57670.03;;;-144.78;91.33
55994;BME280;67425;52.126;20.638;2024-03-23T09:19:49;57703.25;;;-144.78;91.18
55994;BME280;67425;52.126;20.638;2024-03-23T09:22:14;57680.41;;;-144.78;90.24
55994;BME280;67425;52.126;20.638;2024-03-23T09:24:40;57663.78;;;-144.78;89.51
55994;BME280;67425;52.126;20.638;2024-03-23T09:27:05;57694.94;;;-144.78;89.58
55994;BME280;67425;52.126;20.638;2024-03-23T09:29:31;57684.56;;;-144.78;90.37
55994;BME280;67425;52.126;20.638;2024-03-23T09:31:56;57690.78;;;-144.78;88.39
55994;BME280;67425;52.126;20.638;2024-03-23T09:34:22;57670.03;;;-144.78;88.60
55994;BME280;67425;52.126;20.638;2024-03-23T09:36:51;57665.88;;;-144.78;87.58
55994;BME280;67425;52.126;20.638;2024-03-23T09:39:16;57659.63;;;-144.78;88.13
55994;BME280;67425;52.126;20.638;2024-03-23T09:41:42;57694.94;;;-144.78;87.99
55994;BME280;67425;52.126;20.638;2024-03-23T09:44:08;57661.72;;;-144.78;87.32
55994;BME280;67425;52.126;20.638;2024-03-23T09:46:33;57659.63;;;-144.78;87.04
55994;BME280;67425;52.126;20.638;2024-03-23T09:49:02;57655.50;;;-144.78;87.47
55994;BME280;67425;52.126;20.638;2024-03-23T09:51:30;57661.72;;;-144.78;86.52
55994;BME280;67425;52.126;20.638;2024-03-23T09:53:55;57655.50;;;-144.78;86.77
55994;BME280;67425;52.126;20.638;2024-03-23T09:56:21;57678.34;;;-144.78;86.63
55994;BME280;67425;52.126;20.638;2024-03-23T09:58:47;57632.66;;;-144.78;85.79
55994;BME280;67425;52.126;20.638;2024-03-23T10:01:12;57626.41;;;-144.78;84.82
55994;BME280;67425;52.126;20.638;2024-03-23T10:03:44;57659.63;;;-144.78;83.68
55994;BME280;67425;52.126;20.638;2024-03-23T10:06:10;57624.34;;;-144.78;83.00
55994;BME280;67425;52.126;20.638;2024-03-23T10:08:37;57632.66;;;-144.78;83.97
55994;BME280;67425;52.126;20.638;2024-03-23T10:11:14;57661.72;;;-144.78;82.33
55994;BME280;67425;52.126;20.638;2024-03-23T10:13:41;57647.19;;;-144.78;82.67
55994;BME280;67425;52.126;20.638;2024-03-23T10:16:07;57647.19;;;-144.78;82.67
55994;BME280;67425;52.126;20.638;2024-03-23T10:18:37;57624.34;;;-144.78;80.36
55994;BME280;67425;52.126;20.638;2024-03-23T10:23:34;57653.41;;;-144.78;80.98
55994;BME280;67425;52.126;20.638;2024-03-23T10:26:18;57599.41;;;-144.78;79.96
55994;BME280;67425;52.126;20.638;2024-03-23T10:31:20;57636.78;;;-144.78;79.29
55994;BME280;67425;52.126;20.638;2024-03-23T10:33:49;57624.34;;;-144.78;78.77
55994;BME280;67425;52.126;20.638;2024-03-23T10:36:15;57626.41;;;-144.78;78.15
55994;BME280;67425;52.126;20.638;2024-03-23T10:38:42;57599.41;;;-144.78;78.48
55994;BME280;67425;52.126;20.638;2024-03-23T10:41:09;57638.88;;;-144.78;78.41
55994;BME280;67425;52.126;20.638;2024-03-23T10:43:36;57628.50;;;-144.78;76.77
55994;BME280;67425;52.126;20.638;2024-03-23T10:46:01;57651.34;;;-144.78;77.01
55994;BME280;67425;52.126;20.638;2024-03-23T10:48:27;57591.09;;;-144.78;77.62
55994;BME280;67425;52.126;20.638;2024-03-23T10:50:53;57628.50;;;-144.78;77.29
55994;BME280;67425;52.126;20.638;2024-03-23T10:53:30;57638.88;;;-144.78;75.84
55994;BME280;67425;52.126;20.638;2024-03-23T10:55:58;57589.03;;;-144.78;75.99
55994;BME280;67425;52.126;20.638;2024-03-23T10:58:41;57609.78;;;-144.78;76.07
55994;BME280;67425;52.126;20.638;2024-03-23T11:01:11;57609.78;;;-144.78;75.52
55994;BME280;67425;52.126;20.638;2024-03-23T11:03:38;57609.78;;;-144.78;74.35
55994;BME280;67425;52.126;20.638;2024-03-23T11:06:05;57618.09;;;-144.78;73.87
55994;BME280;67425;52.126;20.638;2024-03-23T11:08:37;57611.88;;;-144.78;73.96
55994;BME280;67425;52.126;20.638;2024-03-23T11:11:19;57601.50;;;-144.78;73.68
55994;BME280;67425;52.126;20.638;2024-03-23T11:13:52;57616.03;;;-144.78;73.77
55994;BME280;67425;52.126;20.638;2024-03-23T11:16:28;57607.72;;;-144.78;73.64
55994;BME280;67425;52.126;20.638;2024-03-23T11:19:33;57611.88;;;-144.78;73.14
55994;BME280;67425;52.126;20.638;2024-03-23T11:21:59;57628.50;;;-144.78;73.20
55994;BME280;67425;52.126;20.638;2024-03-23T11:24:24;57578.66;;;-144.78;73.45
55994;BME280;67425;52.126;20.638;2024-03-23T11:26:50;57620.19;;;-144.78;71.80
55994;BME280;67425;52.126;20.638;2024-03-23T11:29:16;57603.56;;;-144.78;70.40
55994;BME280;67425;52.126;20.638;2024-03-23T11:31:48;57586.94;;;-144.78;70.51
55994;BME280;67425;52.126;20.638;2024-03-23T11:34:17;57593.19;;;-144.78;70.96
55994;BME280;67425;52.126;20.638;2024-03-23T11:36:43;57576.56;;;-144.78;70.62
55994;BME280;67425;52.126;20.638;2024-03-23T11:39:15;57611.88;;;-144.78;68.81
55994;BME280;67425;52.126;20.638;2024-03-23T11:41:49;57611.88;;;-144.78;68.65
55994;BME280;67425;52.126;20.638;2024-03-23T11:44:35;57589.03;;;-144.78;69.15
55994;BME280;67425;52.126;20.638;2024-03-23T11:47:09;57572.41;;;-144.78;69.48
55994;BME280;67425;52.126;20.638;2024-03-23T11:49:36;57589.03;;;-144.78;68.83
55994;BME280;67425;52.126;20.638;2024-03-23T11:52:06;57576.56;;;-144.78;68.02
55994;BME280;67425;52.126;20.638;2024-03-23T11:54:31;57609.78;;;-144.78;67.83
55994;BME280;67425;52.126;20.638;2024-03-23T11:56:58;57593.19;;;-144.78;67.90
55994;BME280;67425;52.126;20.638;2024-03-23T12:01:59;57578.66;;;-144.78;63.28
55994;BME280;67425;52.126;20.638;2024-03-23T12:04:28;57618.09;;;-144.78;63.70
55994;BME280;67425;52.126;20.638;2024-03-23T12:07:32;57586.94;;;-144.78;64.10
55994;BME280;67425;52.126;20.638;2024-03-23T12:10:04;57613.94;;;-144.78;63.53
55994;BME280;67425;52.126;20.638;2024-03-23T12:12:31;57657.56;;;-144.78;64.64
55994;BME280;67425;52.126;20.638;2024-03-23T12:15:04;57626.41;;;-144.78;64.38
55994;BME280;67425;52.126;20.638;2024-03-23T12:17:31;57616.03;;;-144.78;65.15
55994;BME280;67425;52.126;20.638;2024-03-23T12:19:56;57605.66;;;-144.78;65.50
55994;BME280;67425;52.126;20.638;2024-03-23T12:22:23;57634.72;;;-144.78;65.32
55994;BME280;67425;52.126;20.638;2024-03-23T12:24:48;57636.78;;;-144.78;64.98
55994;BME280;67425;52.126;20.638;2024-03-23T12:27:14;57613.94;;;-144.78;64.57
55994;BME280;67425;52.126;20.638;2024-03-23T12:29:42;57609.78;;;-144.78;63.62
55994;BME280;67425;52.126;20.638;2024-03-23T12:32:11;57636.78;;;-144.78;62.75
55994;BME280;67425;52.126;20.638;2024-03-23T12:34:36;57618.09;;;-144.78;62.04
55994;BME280;67425;52.126;20.638;2024-03-23T12:37:01;57616.03;;;-144.78;61.86
55994;BME280;67425;52.126;20.638;2024-03-23T12:39:27;57584.88;;;-144.78;61.95
55994;BME280;67425;52.126;20.638;2024-03-23T12:41:52;57580.72;;;-144.78;62.31
55994;BME280;67425;52.126;20.638;2024-03-23T12:44:18;57593.19;;;-144.78;61.47
55994;BME280;67425;52.126;20.638;2024-03-23T12:46:44;57609.78;;;-144.78;61.16
55994;BME280;67425;52.126;20.638;2024-03-23T12:49:10;57620.19;;;-144.78;61.76
55994;BME280;67425;52.126;20.638;2024-03-23T12:51:36;57624.34;;;-144.78;62.22
55994;BME280;67425;52.126;20.638;2024-03-23T12:54:02;57616.03;;;-144.78;62.33
55994;BME280;67425;52.126;20.638;2024-03-23T12:56:28;57638.88;;;-144.78;62.64
55994;BME280;67425;52.126;20.638;2024-03-23T12:58:54;57605.66;;;-144.78;62.23
55994;BME280;67425;52.126;20.638;2024-03-23T13:01:20;57624.34;;;-144.78;62.46
55994;BME280;67425;52.126;20.638;2024-03-23T13:03:47;57603.56;;;-144.78;62.88
55994;BME280;67425;52.126;20.638;2024-03-23T13:06:13;57609.78;;;-144.78;63.19
55994;BME280;67425;52.126;20.638;2024-03-23T13:08:38;57618.09;;;-144.78;63.33
55994;BME280;67425;52.126;20.638;2024-03-23T13:11:05;57603.56;;;-144.78;62.88
55994;BME280;67425;52.126;20.638;2024-03-23T13:13:30;57647.19;;;-144.78;63.45
55994;BME280;67425;52.126;20.638;2024-03-23T13:15:57;57630.56;;;-144.78;63.37
55994;BME280;67425;52.126;20.638;2024-03-23T13:18:22;57593.19;;;-144.78;63.07
55994;BME280;67425;52.126;20.638;2024-03-23T13:20:48;57618.09;;;-144.78;63.13
55994;BME280;67425;52.126;20.638;2024-03-23T13:23:13;57622.25;;;-144.78;62.24